Details for Delta Airlines at KLAX




Go Back


Latest METAR
Local Time

KLAX 201453Z 09004KT 10SM CLR 06/M07 A3013 RMK AO2 SLP204 T00561072 53025

21/02/2018, 07:05:01

Description
Results
Delta Airlines Logo
Number of Pilots based at KLAX
0 Pilots Based here
Number of Delta Airlines Flights Departed from KLAX
3 Flights Departed
Number of Delta Airlines Flights Arrived at KLAX
1 Flights Arrived
Number of Delta Airlines Schedules Departing from KLAX
533 Schedules
Number of Delta Airlines Schedules Arriving at KLAX
532 Schedules
Number of Delta Airlines Schedules Departing from KLAX availible today
231 Schedules Today
Number of Delta Airlines Schedules Arriving at KLAX availible today
231 Schedules Today
Average Landing Rate at KLAX
-253 fpm
Delta Airlines Average Landing Rate at KLAX
-321 fpm
Total Fuel Purchased at KLAX by Delta Airlines
5,255.78 kgs / 11,586.89 lbs

Pilots Based at KLAX


Pilot ID
Pilot Name
Pilot Rank
No. of Flights
No. of Flying Hours
There are no pilots assigned to this hub!   Will you be the first?
Content